createdAt,value
2019-02-16T00:01:17.641Z,18.75
2019-02-16T00:03:46.103Z,18.93
2019-02-16T00:06:14.813Z,17.60
2019-02-16T00:08:43.417Z,18.92
2019-02-16T00:11:12.185Z,18.07
2019-02-16T00:13:41.057Z,18.70
2019-02-16T00:16:09.976Z,19.32
2019-02-16T00:18:38.452Z,18.48
2019-02-16T00:21:07.269Z,18.10
2019-02-16T00:23:35.833Z,16.77
2019-02-16T00:26:04.986Z,16.17
2019-02-16T00:28:33.477Z,17.57
2019-02-16T00:31:01.986Z,16.63
2019-02-16T00:33:30.465Z,16.47
2019-02-16T00:35:58.945Z,17.40
2019-02-16T00:38:27.817Z,17.17
2019-02-16T00:40:56.277Z,18.17
2019-02-16T00:43:24.833Z,16.67
2019-02-16T00:45:53.325Z,17.50
2019-02-16T00:48:21.969Z,17.40
2019-02-16T00:50:50.455Z,17.73
2019-02-16T00:53:19.053Z,15.27
2019-02-16T00:55:48.130Z,15.80
2019-02-16T00:58:16.604Z,16.65
2019-02-16T01:00:45.222Z,17.03
2019-02-16T01:03:13.709Z,17.73
2019-02-16T01:05:42.228Z,16.13
2019-02-16T01:08:10.917Z,16.77
2019-02-16T01:10:39.418Z,17.27
2019-02-16T01:13:07.992Z,18.80
2019-02-16T01:15:36.625Z,17.67
2019-02-16T01:18:05.113Z,17.90
2019-02-16T01:20:33.904Z,17.43
2019-02-16T01:23:02.729Z,18.43
2019-02-16T01:25:31.227Z,16.55
2019-02-16T01:27:59.750Z,19.07
2019-02-16T01:30:28.332Z,16.77
2019-02-16T01:32:56.831Z,17.37
2019-02-16T01:35:25.376Z,16.73
2019-02-16T01:37:53.859Z,18.03
2019-02-16T01:40:22.688Z,18.10
2019-02-16T01:42:51.180Z,18.33
2019-02-16T01:45:19.707Z,18.07
2019-02-16T01:47:48.301Z,17.83
2019-02-16T01:50:16.815Z,17.53
2019-02-16T01:52:45.583Z,18.30
2019-02-16T01:55:14.180Z,18.60
2019-02-16T01:57:42.668Z,18.60
2019-02-16T02:00:11.272Z,18.47
2019-02-16T02:02:40.224Z,18.63
2019-02-16T02:05:08.996Z,19.63
2019-02-16T02:07:37.667Z,21.00
2019-02-16T02:10:07.219Z,19.70
2019-02-16T02:12:35.704Z,20.57
2019-02-16T02:15:05.867Z,19.37
2019-02-16T02:17:34.372Z,20.53
2019-02-16T02:20:02.968Z,17.80
2019-02-16T02:22:31.808Z,18.77
2019-02-16T02:25:00.592Z,18.53
2019-02-16T02:27:29.100Z,20.67
2019-02-16T02:29:57.596Z,19.95
2019-02-16T02:32:26.108Z,19.53
2019-02-16T02:34:54.596Z,19.30
2019-02-16T02:37:23.128Z,20.87
2019-02-16T02:39:51.971Z,18.12
2019-02-16T02:42:20.564Z,19.97
2019-02-16T02:44:49.455Z,21.00
2019-02-16T02:47:17.952Z,19.83
2019-02-16T02:49:46.423Z,20.87
2019-02-16T02:52:14.936Z,21.97
2019-02-16T02:54:43.429Z,19.87
2019-02-16T02:57:12.334Z,19.67
2019-02-16T02:59:41.059Z,20.93
2019-02-16T03:02:09.540Z,20.23
2019-02-16T03:04:38.343Z,19.27
2019-02-16T03:07:06.831Z,20.43
2019-02-16T03:09:35.423Z,19.83
2019-02-16T03:12:03.949Z,21.93
2019-02-16T03:14:32.876Z,20.77
2019-02-16T03:17:01.644Z,21.80
2019-02-16T03:19:30.228Z,20.23
2019-02-16T03:22:02.919Z,21.60
2019-02-16T03:24:27.297Z,20.97
2019-02-16T03:27:36.451Z,21.47
2019-02-16T03:30:17.864Z,21.47
2019-02-16T03:33:55.595Z,21.13
2019-02-16T03:36:56.883Z,21.40
2019-02-16T03:39:29.035Z,22.80
2019-02-16T03:41:57.554Z,20.17
2019-02-16T03:44:26.403Z,21.40
2019-02-16T03:46:54.902Z,19.80
2019-02-16T03:49:23.551Z,21.87
2019-02-16T03:51:52.022Z,20.23
2019-02-16T03:54:20.539Z,19.30
2019-02-16T03:56:49.148Z,18.97
2019-02-16T03:59:17.635Z,20.50
2019-02-16T04:01:46.275Z,21.50
2019-02-16T04:04:14.747Z,18.12
2019-02-16T04:06:43.227Z,20.37
2019-02-16T04:09:12.295Z,21.90
2019-02-16T04:11:41.263Z,20.80
2019-02-16T04:14:10.007Z,20.63
2019-02-16T04:16:38.505Z,20.67
2019-02-16T04:19:07.235Z,20.07
2019-02-16T04:21:35.851Z,20.53
2019-02-16T04:24:04.848Z,20.70
2019-02-16T04:26:33.685Z,21.47
2019-02-16T04:29:02.330Z,21.30
2019-02-16T04:31:30.827Z,21.77
2019-02-16T04:34:00.028Z,20.37
2019-02-16T04:36:28.546Z,22.27
2019-02-16T04:38:57.360Z,21.30
2019-02-16T04:41:26.687Z,19.90
2019-02-16T04:43:55.219Z,20.07
2019-02-16T04:46:23.691Z,20.13
2019-02-16T04:48:53.240Z,19.43
2019-02-16T04:51:21.731Z,20.57
2019-02-16T04:53:50.232Z,20.17
2019-02-16T04:56:18.738Z,20.00
2019-02-16T04:58:48.084Z,19.87
2019-02-16T05:01:16.630Z,20.03
2019-02-16T05:03:45.110Z,20.93
2019-02-16T05:06:13.944Z,21.30
2019-02-16T05:08:42.431Z,19.67
2019-02-16T05:11:11.293Z,22.50
2019-02-16T05:13:40.230Z,24.67
2019-02-16T05:16:08.719Z,22.63
2019-02-16T05:18:37.462Z,21.97
2019-02-16T05:21:06.226Z,21.70
2019-02-16T05:23:34.992Z,22.13
2019-02-16T05:26:03.592Z,22.13
2019-02-16T05:28:32.154Z,22.20
2019-02-16T05:31:00.618Z,17.87
2019-02-16T05:33:29.112Z,21.13
2019-02-16T05:35:57.562Z,21.37
2019-02-16T05:38:26.019Z,22.70
2019-02-16T05:40:54.794Z,23.33
2019-02-16T05:43:23.302Z,22.20
2019-02-16T05:45:52.169Z,23.27
2019-02-16T05:48:20.636Z,22.13
2019-02-16T05:50:49.404Z,22.17
2019-02-16T05:53:20.118Z,22.27
2019-02-16T05:55:46.551Z,21.27
2019-02-16T05:58:15.438Z,19.75
2019-02-16T06:00:43.934Z,23.53
2019-02-16T06:03:12.783Z,22.13
2019-02-16T06:05:41.358Z,21.60
2019-02-16T06:08:09.950Z,26.17
2019-02-16T06:10:38.688Z,22.67
2019-02-16T06:13:07.187Z,22.77
2019-02-16T06:15:35.948Z,22.63
2019-02-16T06:18:04.790Z,23.18
2019-02-16T06:20:33.410Z,25.70
2019-02-16T06:23:04.237Z,22.87
2019-02-16T06:25:30.739Z,22.13
2019-02-16T06:27:59.322Z,21.73
2019-02-16T06:30:27.851Z,21.77
2019-02-16T06:32:56.326Z,24.50
2019-02-16T06:35:34.050Z,21.30
2019-02-16T06:38:02.987Z,21.97
2019-02-16T06:40:31.808Z,21.67
2019-02-16T06:43:01.781Z,24.10
2019-02-16T06:45:30.241Z,22.30
2019-02-16T06:47:59.142Z,20.40
2019-02-16T06:50:36.547Z,20.57
2019-02-16T06:52:57.079Z,21.53
2019-02-16T06:55:29.770Z,17.37
2019-02-16T06:57:58.288Z,20.90
2019-02-16T07:00:28.910Z,20.67
2019-02-16T07:02:57.558Z,18.10
2019-02-16T07:05:26.074Z,19.73
2019-02-16T07:07:54.649Z,21.47
2019-02-16T07:10:23.121Z,21.70
2019-02-16T07:12:51.854Z,19.10
2019-02-16T07:15:20.326Z,18.80
2019-02-16T07:17:53.128Z,21.20
2019-02-16T07:20:23.777Z,20.70
2019-02-16T07:22:52.914Z,21.57
2019-02-16T07:25:21.518Z,21.30
2019-02-16T07:27:50.162Z,21.87
2019-02-16T07:30:18.766Z,24.17
2019-02-16T07:32:47.354Z,22.07
2019-02-16T07:35:16.706Z,20.93
2019-02-16T07:37:45.163Z,20.60
2019-02-16T07:40:13.646Z,20.47
2019-02-16T07:42:51.214Z,20.57
2019-02-16T07:45:26.101Z,20.57
2019-02-16T07:48:13.741Z,21.47
2019-02-16T07:50:46.809Z,23.47
2019-02-16T07:53:21.365Z,20.60
2019-02-16T07:55:56.121Z,23.70
2019-02-16T07:58:35.709Z,20.23
2019-02-16T08:01:13.065Z,20.77
2019-02-16T08:05:49.329Z,19.17
2019-02-16T08:09:22.625Z,16.73
2019-02-16T08:14:00.909Z,18.43
2019-02-16T08:16:40.621Z,17.60
2019-02-16T08:21:16.796Z,17.67
2019-02-16T08:23:50.602Z,17.43
2019-02-16T08:26:24.317Z,18.60
2019-02-16T08:29:09.925Z,18.07
2019-02-16T08:31:42.661Z,10.60
2019-02-16T08:34:34.177Z,19.07
2019-02-16T08:37:13.041Z,18.40
2019-02-16T08:39:47.740Z,14.20
2019-02-16T08:42:21.657Z,17.40
2019-02-16T08:44:55.389Z,16.13
2019-02-16T08:47:59.129Z,17.00
2019-02-16T08:50:33.161Z,19.32
2019-02-16T08:53:08.093Z,17.30
2019-02-16T08:55:40.797Z,18.00
2019-02-16T08:58:21.726Z,17.00
2019-02-16T09:01:12.448Z,16.47
2019-02-16T09:03:45.332Z,18.33
2019-02-16T09:06:19.257Z,20.07
2019-02-16T09:09:10.049Z,18.43
2019-02-16T09:11:42.762Z,19.70
2019-02-16T09:14:15.650Z,16.73
2019-02-16T09:16:49.193Z,16.37
2019-02-16T09:19:22.253Z,16.17
2019-02-16T09:21:56.818Z,18.05
2019-02-16T09:24:32.778Z,17.32
2019-02-16T09:27:26.361Z,16.82
2019-02-16T09:30:04.199Z,17.10
2019-02-16T09:32:52.036Z,19.48
2019-02-16T09:36:24.186Z,19.57
2019-02-16T09:38:57.452Z,18.55
2019-02-16T09:41:33.068Z,16.50
2019-02-16T09:44:10.884Z,15.58
2019-02-16T09:46:59.376Z,18.45
2019-02-16T09:50:31.028Z,13.50
2019-02-16T09:53:06.124Z,17.42
2019-02-16T09:55:40.876Z,16.07
2019-02-16T09:58:14.660Z,17.25
2019-02-16T10:00:55.621Z,16.20
2019-02-16T10:03:29.300Z,16.52
2019-02-16T10:08:04.488Z,16.30
2019-02-16T10:10:41.717Z,16.12
2019-02-16T10:13:17.865Z,16.23
2019-02-16T10:16:24.132Z,14.73
2019-02-16T10:18:57.872Z,16.82
2019-02-16T10:21:31.476Z,15.30
2019-02-16T10:26:11.880Z,14.45
2019-02-16T10:28:51.599Z,15.35
2019-02-16T10:31:24.300Z,15.40
2019-02-16T10:33:57.256Z,16.95
2019-02-16T10:37:35.300Z,9.43
2019-02-16T10:42:12.070Z,14.85
2019-02-16T10:44:47.712Z,15.32
2019-02-16T10:47:21.324Z,13.45
2019-02-16T10:49:56.016Z,16.75
2019-02-16T10:52:36.884Z,17.02
2019-02-16T10:55:17.767Z,17.10
2019-02-16T10:57:50.455Z,10.70
2019-02-16T11:02:28.796Z,14.27
2019-02-16T11:05:32.931Z,13.93
2019-02-16T11:08:13.335Z,14.87
2019-02-16T11:10:51.640Z,14.95
2019-02-16T11:15:30.795Z,16.45
2019-02-16T11:18:08.485Z,17.60
2019-02-16T11:20:42.060Z,15.48
2019-02-16T11:23:16.080Z,18.12
2019-02-16T11:25:49.931Z,8.80
2019-02-16T11:28:23.615Z,18.02
2019-02-16T11:30:57.272Z,17.23
2019-02-16T11:33:47.895Z,17.42
2019-02-16T11:36:22.565Z,16.87
2019-02-16T11:38:56.369Z,16.82
2019-02-16T11:54:20.101Z,16.27
2019-02-16T11:56:57.938Z,17.82
2019-02-16T11:59:35.637Z,16.73
2019-02-16T12:02:26.509Z,14.80
2019-02-16T12:05:01.217Z,17.12
2019-02-16T12:07:38.349Z,17.15
2019-02-16T12:10:16.833Z,16.35
2019-02-16T12:13:20.813Z,17.73
2019-02-16T12:15:54.778Z,16.15
2019-02-16T12:18:31.480Z,17.02
2019-02-16T12:23:09.121Z,14.58
2019-02-16T12:25:42.977Z,17.75
2019-02-16T12:28:16.079Z,17.52
2019-02-16T12:30:52.844Z,14.68
2019-02-16T12:33:26.837Z,17.10
2019-02-16T12:36:00.644Z,18.05
2019-02-16T12:38:34.596Z,17.30
2019-02-16T12:41:07.416Z,18.10
2019-02-16T12:43:41.480Z,18.35
2019-02-16T12:46:15.168Z,17.62
2019-02-16T12:48:50.897Z,17.23
2019-02-16T12:51:28.644Z,17.12
2019-02-16T12:54:10.304Z,18.37
2019-02-16T12:56:49.920Z,19.48
2019-02-16T12:59:23.581Z,14.85
2019-02-16T13:02:13.204Z,19.57
2019-02-16T13:06:54.082Z,13.03
2019-02-16T13:09:29.836Z,17.50
2019-02-16T13:12:03.689Z,18.77
2019-02-16T13:14:41.308Z,16.52
2019-02-16T13:18:19.228Z,17.70
2019-02-16T13:20:53.012Z,18.75
2019-02-16T13:23:26.750Z,18.00
2019-02-16T13:26:00.668Z,15.35
2019-02-16T13:28:46.100Z,18.50
2019-02-16T13:31:23.680Z,18.57
2019-02-16T13:34:04.196Z,20.08
2019-02-16T13:36:37.970Z,19.32
2019-02-16T13:39:13.191Z,19.10
2019-02-16T13:41:46.187Z,18.73
2019-02-16T13:45:23.567Z,20.17
2019-02-16T13:47:57.248Z,19.23
2019-02-16T13:50:32.019Z,19.87
2019-02-16T13:53:06.616Z,20.45
2019-02-16T13:55:54.495Z,20.05
2019-02-16T13:58:34.083Z,23.07
2019-02-16T14:01:07.411Z,21.27
2019-02-16T14:03:48.042Z,21.15
2019-02-16T14:06:52.859Z,21.90
2019-02-16T14:09:28.675Z,22.65
2019-02-16T14:14:06.870Z,21.77
2019-02-16T14:16:40.616Z,20.08
2019-02-16T14:19:09.127Z,20.60
2019-02-16T14:21:37.995Z,21.57
2019-02-16T14:24:06.583Z,20.85
2019-02-16T14:26:35.046Z,22.73
2019-02-16T14:29:03.571Z,21.75
2019-02-16T14:31:32.146Z,20.92
2019-02-16T14:34:00.722Z,21.57
2019-02-16T14:36:29.327Z,20.57
2019-02-16T14:39:02.292Z,20.45
2019-02-16T14:41:30.843Z,21.12
2019-02-16T14:43:59.601Z,21.70
2019-02-16T14:46:28.131Z,22.30
2019-02-16T14:48:56.584Z,22.17
2019-02-16T14:51:25.387Z,21.37
2019-02-16T14:53:53.911Z,22.42
2019-02-16T14:56:22.762Z,22.42
2019-02-16T14:58:51.334Z,21.12
2019-02-16T15:01:19.854Z,19.90
2019-02-16T15:03:48.394Z,20.52
2019-02-16T15:06:16.914Z,20.33
2019-02-16T15:08:45.594Z,20.50
2019-02-16T15:11:14.088Z,21.68
2019-02-16T15:13:42.601Z,19.27
2019-02-16T15:16:11.140Z,22.70
2019-02-16T15:18:39.645Z,22.55
2019-02-16T15:21:08.173Z,21.05
2019-02-16T15:23:38.520Z,20.65
2019-02-16T15:26:05.304Z,21.42
2019-02-16T15:28:33.879Z,21.27
2019-02-16T15:31:02.374Z,22.15
2019-02-16T15:33:30.936Z,25.72
2019-02-16T15:35:59.580Z,23.87
2019-02-16T15:38:28.128Z,22.27
2019-02-16T15:40:56.977Z,22.17
2019-02-16T15:43:25.984Z,22.25
2019-02-16T15:45:54.566Z,22.45
2019-02-16T15:48:23.056Z,22.45
2019-02-16T15:50:52.268Z,22.67
2019-02-16T15:53:20.956Z,23.87
2019-02-16T15:55:49.500Z,24.27
2019-02-16T15:58:18.120Z,25.77
2019-02-16T16:00:47.119Z,23.92
2019-02-16T16:03:15.647Z,24.92
2019-02-16T16:05:44.668Z,26.30
2019-02-16T16:08:27.271Z,24.32
2019-02-16T16:11:02.905Z,23.45
2019-02-16T16:13:35.715Z,23.85
2019-02-16T16:18:12.164Z,24.25
2019-02-16T16:20:48.757Z,25.45
2019-02-16T16:23:25.300Z,26.07
2019-02-16T16:25:58.879Z,25.27
2019-02-16T16:28:34.402Z,23.12
2019-02-16T16:31:15.142Z,24.47
2019-02-16T16:33:50.862Z,25.02
2019-02-16T16:36:59.663Z,24.10
2019-02-16T16:39:33.016Z,23.22
2019-02-16T16:42:16.699Z,24.18
2019-02-16T16:44:50.530Z,25.30
2019-02-16T16:47:24.424Z,24.47
2019-02-16T16:49:58.234Z,24.32
2019-02-16T16:54:34.733Z,24.90
2019-02-16T16:57:26.183Z,24.82
2019-02-16T17:02:05.415Z,25.30
2019-02-16T17:04:41.134Z,24.55
2019-02-16T17:07:18.874Z,24.02
2019-02-16T17:09:53.410Z,24.72
2019-02-16T17:12:34.823Z,27.35
2019-02-16T17:15:05.838Z,27.35
2019-02-16T17:17:44.355Z,28.20
2019-02-16T17:20:18.992Z,28.02
2019-02-16T17:22:51.783Z,31.05
2019-02-16T17:25:24.599Z,30.63
2019-02-16T17:27:58.542Z,30.05
2019-02-16T17:30:48.768Z,30.15
2019-02-16T17:33:21.962Z,29.65
2019-02-16T17:35:58.798Z,29.10
2019-02-16T17:39:06.831Z,29.63
2019-02-16T17:41:39.552Z,29.25
2019-02-16T17:46:15.323Z,28.47
2019-02-16T17:48:50.243Z,27.87
2019-02-16T17:51:40.966Z,29.02
2019-02-16T17:54:19.742Z,30.70
2019-02-16T17:56:52.484Z,30.65
2019-02-16T17:59:29.227Z,31.82
2019-02-16T18:02:16.998Z,30.82
2019-02-16T18:04:50.919Z,29.25
2019-02-16T18:07:24.696Z,30.50
2019-02-16T18:10:02.436Z,30.48
2019-02-16T18:12:38.512Z,31.57
2019-02-16T18:15:16.554Z,31.07
2019-02-16T18:17:50.149Z,29.50
2019-02-16T18:20:25.576Z,30.00
2019-02-16T18:25:00.940Z,31.85
2019-02-16T18:27:44.672Z,32.00
2019-02-16T18:30:27.460Z,31.68
2019-02-16T18:33:01.544Z,31.65
2019-02-16T18:37:37.453Z,30.35
2019-02-16T18:40:10.400Z,29.35
2019-02-16T18:42:45.121Z,29.98
2019-02-16T18:45:20.944Z,31.50
2019-02-16T18:47:57.560Z,31.73
2019-02-16T18:52:37.345Z,32.38
2019-02-16T18:55:14.109Z,32.33
2019-02-16T18:58:18.777Z,32.83
2019-02-16T19:00:54.215Z,31.65
2019-02-16T19:03:29.956Z,31.93
2019-02-16T19:06:03.851Z,31.33
2019-02-16T19:08:37.614Z,31.17
2019-02-16T19:11:12.758Z,30.60
2019-02-16T19:13:46.584Z,32.48
2019-02-16T19:17:28.602Z,32.98
2019-02-16T19:22:07.626Z,31.37
2019-02-16T19:24:47.318Z,32.08
2019-02-16T19:27:36.157Z,31.50
2019-02-16T19:32:12.188Z,31.05
2019-02-16T19:37:19.641Z,31.37
2019-02-16T19:39:53.087Z,31.60
2019-02-16T19:44:33.358Z,31.10
2019-02-16T19:47:37.774Z,31.37
2019-02-16T19:50:14.447Z,33.00
2019-02-16T19:52:49.574Z,31.77
2019-02-16T19:55:28.302Z,33.23
2019-02-16T19:58:10.371Z,33.83
2019-02-16T20:00:43.574Z,34.43
2019-02-16T20:03:18.862Z,34.58
2019-02-16T20:06:23.153Z,37.00
2019-02-16T20:09:04.222Z,37.40
2019-02-16T20:11:40.333Z,33.65
2019-02-16T20:14:17.033Z,31.00
2019-02-16T20:17:05.829Z,31.93
2019-02-16T20:20:12.768Z,33.10
2019-02-16T20:22:48.724Z,34.13
2019-02-16T20:25:23.371Z,36.77
2019-02-16T20:27:57.439Z,36.88
2019-02-16T20:31:06.423Z,34.43
2019-02-16T20:34:42.512Z,38.50
2019-02-16T20:37:32.515Z,35.80
2019-02-16T20:40:24.575Z,38.30
2019-02-16T20:45:01.931Z,37.85
2019-02-16T20:48:06.739Z,35.25
2019-02-16T20:50:42.456Z,35.08
2019-02-16T20:54:18.594Z,36.42
2019-02-16T20:58:54.027Z,34.48
2019-02-16T21:02:03.797Z,35.55
2019-02-16T21:04:37.611Z,32.60
2019-02-16T21:09:13.822Z,35.90
2019-02-16T21:11:47.558Z,37.15
2019-02-16T21:14:21.234Z,38.70
2019-02-16T21:17:01.182Z,40.03
2019-02-16T21:19:35.136Z,38.35
2019-02-16T21:22:09.078Z,40.75
2019-02-16T21:24:49.914Z,38.65
2019-02-16T21:27:26.622Z,38.25
2019-02-16T21:30:04.350Z,37.10
2019-02-16T21:32:49.074Z,35.85
2019-02-16T21:35:29.890Z,36.03
2019-02-16T21:38:03.686Z,35.08
2019-02-16T21:41:13.793Z,34.95
2019-02-16T21:43:50.767Z,32.83
2019-02-16T21:46:25.418Z,34.38
2019-02-16T21:49:04.984Z,35.08
2019-02-16T21:51:39.966Z,33.73
2019-02-16T21:54:29.086Z,35.33
2019-02-16T21:57:03.967Z,35.43
2019-02-16T21:59:41.486Z,40.33
2019-02-16T22:03:18.657Z,38.07
2019-02-16T22:05:57.481Z,37.83
2019-02-16T22:08:31.298Z,35.67
2019-02-16T22:11:04.125Z,34.80
2019-02-16T22:13:33.079Z,33.08
2019-02-16T22:16:01.686Z,31.07
2019-02-16T22:18:30.498Z,28.93
2019-02-16T22:20:59.021Z,30.80
2019-02-16T22:23:27.609Z,29.40
2019-02-16T22:25:56.297Z,26.42
2019-02-16T22:28:30.863Z,27.62
2019-02-16T22:30:53.514Z,27.60
2019-02-16T22:33:21.985Z,26.40
2019-02-16T22:35:50.502Z,25.68
2019-02-16T22:38:19.105Z,26.43
2019-02-16T22:40:47.609Z,26.27
2019-02-16T22:43:16.508Z,26.53
2019-02-16T22:45:45.053Z,25.60
2019-02-16T22:48:13.664Z,22.23
2019-02-16T22:50:42.550Z,26.97
2019-02-16T22:53:11.096Z,26.15
2019-02-16T22:55:40.021Z,27.33
2019-02-16T22:58:08.705Z,23.80
2019-02-16T23:00:42.492Z,26.45
2019-02-16T23:03:11.116Z,25.03
2019-02-16T23:05:39.925Z,25.63
2019-02-16T23:08:08.448Z,24.60
2019-02-16T23:10:37.456Z,24.70
2019-02-16T23:13:06.120Z,24.47
2019-02-16T23:15:34.644Z,25.10
2019-02-16T23:18:03.166Z,23.32
2019-02-16T23:20:34.356Z,23.60
2019-02-16T23:23:03.212Z,22.27
2019-02-16T23:25:32.185Z,24.95
2019-02-16T23:28:00.768Z,24.63
2019-02-16T23:30:29.368Z,23.30
2019-02-16T23:32:57.869Z,25.33
2019-02-16T23:35:26.512Z,24.03
2019-02-16T23:37:55.040Z,23.03
2019-02-16T23:40:23.612Z,22.50
2019-02-16T23:42:52.192Z,24.35
2019-02-16T23:45:20.811Z,22.17
2019-02-16T23:47:49.332Z,22.90
2019-02-16T23:50:18.188Z,21.00
2019-02-16T23:52:46.856Z,21.43
2019-02-16T23:55:15.488Z,20.60
2019-02-16T23:57:44.665Z,21.03
